sensor_id;sensor_type;location;lat;lon;timestamp;P1;durP1;ratioP1;P2;durP2;ratioP2
27533;SDS011;14973;51.460;7.008;2023-08-30T00:02:04;24.50;;;15.23;;
27533;SDS011;14973;51.460;7.008;2023-08-30T00:04:30;29.00;;;15.05;;
27533;SDS011;14973;51.460;7.008;2023-08-30T00:06:55;25.40;;;15.65;;
27533;SDS011;14973;51.460;7.008;2023-08-30T00:09:21;28.92;;;17.13;;
27533;SDS011;14973;51.460;7.008;2023-08-30T00:11:46;27.67;;;16.65;;
27533;SDS011;14973;51.460;7.008;2023-08-30T00:14:12;21.80;;;16.13;;
27533;SDS011;14973;51.460;7.008;2023-08-30T00:16:37;28.15;;;16.45;;
27533;SDS011;14973;51.460;7.008;2023-08-30T00:19:03;27.20;;;16.35;;
27533;SDS011;14973;51.460;7.008;2023-08-30T00:21:29;33.35;;;16.70;;
27533;SDS011;14973;51.460;7.008;2023-08-30T00:23:55;31.02;;;16.33;;
27533;SDS011;14973;51.460;7.008;2023-08-30T00:26:21;28.75;;;15.10;;
27533;SDS011;14973;51.460;7.008;2023-08-30T00:28:46;27.52;;;16.45;;
27533;SDS011;14973;51.460;7.008;2023-08-30T00:31:12;26.92;;;17.08;;
27533;SDS011;14973;51.460;7.008;2023-08-30T00:33:37;29.27;;;16.90;;
27533;SDS011;14973;51.460;7.008;2023-08-30T00:36:03;28.58;;;15.00;;
27533;SDS011;14973;51.460;7.008;2023-08-30T00:38:29;27.88;;;16.00;;
27533;SDS011;14973;51.460;7.008;2023-08-30T00:40:55;30.27;;;16.17;;
27533;SDS011;14973;51.460;7.008;2023-08-30T00:43:21;28.83;;;16.35;;
27533;SDS011;14973;51.460;7.008;2023-08-30T00:45:47;33.67;;;15.85;;
27533;SDS011;14973;51.460;7.008;2023-08-30T00:48:13;25.77;;;16.02;;
27533;SDS011;14973;51.460;7.008;2023-08-30T00:50:41;30.60;;;15.10;;
27533;SDS011;14973;51.460;7.008;2023-08-30T00:53:07;30.55;;;15.15;;
27533;SDS011;14973;51.460;7.008;2023-08-30T00:55:36;27.38;;;16.70;;
27533;SDS011;14973;51.460;7.008;2023-08-30T00:58:02;34.10;;;18.27;;
27533;SDS011;14973;51.460;7.008;2023-08-30T01:00:31;30.90;;;16.40;;
27533;SDS011;14973;51.460;7.008;2023-08-30T01:02:58;35.08;;;18.63;;
27533;SDS011;14973;51.460;7.008;2023-08-30T01:05:24;32.28;;;18.20;;
27533;SDS011;14973;51.460;7.008;2023-08-30T01:07:50;29.48;;;16.58;;
27533;SDS011;14973;51.460;7.008;2023-08-30T01:10:16;30.90;;;18.02;;
27533;SDS011;14973;51.460;7.008;2023-08-30T01:12:44;29.98;;;19.17;;
27533;SDS011;14973;51.460;7.008;2023-08-30T01:15:18;33.13;;;18.95;;
27533;SDS011;14973;51.460;7.008;2023-08-30T01:17:44;28.92;;;19.33;;
27533;SDS011;14973;51.460;7.008;2023-08-30T01:20:13;33.92;;;18.80;;
27533;SDS011;14973;51.460;7.008;2023-08-30T01:28:10;36.00;;;25.30;;
27533;SDS011;14973;51.460;7.008;2023-08-30T01:30:40;39.72;;;24.35;;
27533;SDS011;14973;51.460;7.008;2023-08-30T01:33:06;48.20;;;25.75;;
27533;SDS011;14973;51.460;7.008;2023-08-30T01:35:33;45.60;;;25.20;;
27533;SDS011;14973;51.460;7.008;2023-08-30T01:38:02;50.00;;;28.42;;
27533;SDS011;14973;51.460;7.008;2023-08-30T01:40:32;51.22;;;30.20;;
27533;SDS011;14973;51.460;7.008;2023-08-30T01:43:02;47.72;;;30.38;;
27533;SDS011;14973;51.460;7.008;2023-08-30T01:45:30;50.63;;;33.17;;
27533;SDS011;14973;51.460;7.008;2023-08-30T01:47:59;53.58;;;32.95;;
27533;SDS011;14973;51.460;7.008;2023-08-30T01:50:24;52.15;;;32.30;;
27533;SDS011;14973;51.460;7.008;2023-08-30T01:52:51;62.42;;;34.53;;
27533;SDS011;14973;51.460;7.008;2023-08-30T01:55:17;50.90;;;33.08;;
27533;SDS011;14973;51.460;7.008;2023-08-30T01:57:45;56.88;;;34.50;;
27533;SDS011;14973;51.460;7.008;2023-08-30T02:00:10;53.83;;;32.80;;
27533;SDS011;14973;51.460;7.008;2023-08-30T02:02:37;58.65;;;33.92;;
27533;SDS011;14973;51.460;7.008;2023-08-30T02:05:02;54.70;;;33.90;;
27533;SDS011;14973;51.460;7.008;2023-08-30T02:07:30;51.58;;;32.90;;
27533;SDS011;14973;51.460;7.008;2023-08-30T02:12:45;50.75;;;33.13;;
27533;SDS011;14973;51.460;7.008;2023-08-30T02:15:12;51.72;;;32.85;;
27533;SDS011;14973;51.460;7.008;2023-08-30T02:17:39;59.75;;;35.45;;
27533;SDS011;14973;51.460;7.008;2023-08-30T02:20:05;60.53;;;37.05;;
27533;SDS011;14973;51.460;7.008;2023-08-30T02:22:32;56.47;;;36.53;;
27533;SDS011;14973;51.460;7.008;2023-08-30T02:24:58;60.65;;;34.72;;
27533;SDS011;14973;51.460;7.008;2023-08-30T02:27:24;59.08;;;36.28;;
27533;SDS011;14973;51.460;7.008;2023-08-30T02:29:50;53.50;;;33.05;;
27533;SDS011;14973;51.460;7.008;2023-08-30T02:32:15;59.53;;;36.47;;
27533;SDS011;14973;51.460;7.008;2023-08-30T02:34:45;63.67;;;38.13;;
27533;SDS011;14973;51.460;7.008;2023-08-30T02:37:14;67.82;;;37.35;;
27533;SDS011;14973;51.460;7.008;2023-08-30T02:39:40;56.28;;;34.53;;
27533;SDS011;14973;51.460;7.008;2023-08-30T02:42:05;62.40;;;37.17;;
27533;SDS011;14973;51.460;7.008;2023-08-30T02:44:31;59.78;;;36.33;;
27533;SDS011;14973;51.460;7.008;2023-08-30T02:46:56;60.97;;;37.47;;
27533;SDS011;14973;51.460;7.008;2023-08-30T02:49:22;56.17;;;34.45;;
27533;SDS011;14973;51.460;7.008;2023-08-30T02:51:47;57.10;;;34.47;;
27533;SDS011;14973;51.460;7.008;2023-08-30T02:54:13;57.50;;;34.72;;
27533;SDS011;14973;51.460;7.008;2023-08-30T02:56:39;55.03;;;33.85;;
27533;SDS011;14973;51.460;7.008;2023-08-30T02:59:06;61.35;;;35.20;;
27533;SDS011;14973;51.460;7.008;2023-08-30T03:01:31;51.63;;;32.72;;
27533;SDS011;14973;51.460;7.008;2023-08-30T03:03:57;57.13;;;34.25;;
27533;SDS011;14973;51.460;7.008;2023-08-30T03:06:22;60.03;;;33.90;;
27533;SDS011;14973;51.460;7.008;2023-08-30T03:08:48;55.38;;;33.97;;
27533;SDS011;14973;51.460;7.008;2023-08-30T03:11:14;52.40;;;33.58;;
27533;SDS011;14973;51.460;7.008;2023-08-30T03:13:39;54.42;;;33.67;;
27533;SDS011;14973;51.460;7.008;2023-08-30T03:18:40;47.95;;;30.65;;
27533;SDS011;14973;51.460;7.008;2023-08-30T03:21:07;60.92;;;35.25;;
27533;SDS011;14973;51.460;7.008;2023-08-30T03:23:33;58.28;;;34.47;;
27533;SDS011;14973;51.460;7.008;2023-08-30T03:26:06;57.33;;;32.47;;
27533;SDS011;14973;51.460;7.008;2023-08-30T03:28:41;56.33;;;33.80;;
27533;SDS011;14973;51.460;7.008;2023-08-30T03:31:15;56.50;;;32.08;;
27533;SDS011;14973;51.460;7.008;2023-08-30T03:33:42;47.63;;;29.90;;
27533;SDS011;14973;51.460;7.008;2023-08-30T03:36:09;51.70;;;32.40;;
27533;SDS011;14973;51.460;7.008;2023-08-30T03:38:36;52.65;;;32.08;;
27533;SDS011;14973;51.460;7.008;2023-08-30T03:41:03;56.75;;;30.40;;
27533;SDS011;14973;51.460;7.008;2023-08-30T03:43:29;48.58;;;31.05;;
27533;SDS011;14973;51.460;7.008;2023-08-30T03:45:55;50.35;;;31.73;;
27533;SDS011;14973;51.460;7.008;2023-08-30T03:48:21;56.70;;;32.28;;
27533;SDS011;14973;51.460;7.008;2023-08-30T03:50:46;51.35;;;31.05;;
27533;SDS011;14973;51.460;7.008;2023-08-30T03:53:12;49.08;;;30.45;;
27533;SDS011;14973;51.460;7.008;2023-08-30T03:55:37;54.00;;;32.35;;
27533;SDS011;14973;51.460;7.008;2023-08-30T03:58:03;53.65;;;32.22;;
27533;SDS011;14973;51.460;7.008;2023-08-30T04:00:28;57.38;;;33.60;;
27533;SDS011;14973;51.460;7.008;2023-08-30T04:02:54;58.75;;;34.35;;
27533;SDS011;14973;51.460;7.008;2023-08-30T04:05:20;62.10;;;35.53;;
27533;SDS011;14973;51.460;7.008;2023-08-30T04:07:45;65.05;;;36.97;;
27533;SDS011;14973;51.460;7.008;2023-08-30T04:10:11;69.97;;;40.92;;
27533;SDS011;14973;51.460;7.008;2023-08-30T04:12:36;65.93;;;37.40;;
27533;SDS011;14973;51.460;7.008;2023-08-30T04:15:02;73.53;;;43.10;;
27533;SDS011;14973;51.460;7.008;2023-08-30T04:17:28;74.43;;;44.00;;
27533;SDS011;14973;51.460;7.008;2023-08-30T04:19:53;74.95;;;42.47;;
27533;SDS011;14973;51.460;7.008;2023-08-30T04:22:19;67.25;;;42.10;;
27533;SDS011;14973;51.460;7.008;2023-08-30T04:24:46;72.97;;;42.08;;
27533;SDS011;14973;51.460;7.008;2023-08-30T04:27:12;74.40;;;42.58;;
27533;SDS011;14973;51.460;7.008;2023-08-30T04:29:37;78.95;;;43.42;;
27533;SDS011;14973;51.460;7.008;2023-08-30T04:32:03;72.63;;;43.42;;
27533;SDS011;14973;51.460;7.008;2023-08-30T04:34:29;74.00;;;42.78;;
27533;SDS011;14973;51.460;7.008;2023-08-30T04:36:55;73.60;;;43.25;;
27533;SDS011;14973;51.460;7.008;2023-08-30T04:39:21;70.22;;;40.65;;
27533;SDS011;14973;51.460;7.008;2023-08-30T04:41:47;71.80;;;40.88;;
27533;SDS011;14973;51.460;7.008;2023-08-30T04:44:12;65.22;;;41.05;;
27533;SDS011;14973;51.460;7.008;2023-08-30T04:46:38;75.30;;;40.17;;
27533;SDS011;14973;51.460;7.008;2023-08-30T04:49:03;70.95;;;41.30;;
27533;SDS011;14973;51.460;7.008;2023-08-30T04:51:30;68.82;;;41.90;;
27533;SDS011;14973;51.460;7.008;2023-08-30T04:53:55;71.28;;;43.47;;
27533;SDS011;14973;51.460;7.008;2023-08-30T04:56:21;81.53;;;44.72;;
27533;SDS011;14973;51.460;7.008;2023-08-30T04:58:46;71.82;;;42.55;;
27533;SDS011;14973;51.460;7.008;2023-08-30T05:01:12;69.80;;;38.53;;
27533;SDS011;14973;51.460;7.008;2023-08-30T05:03:38;68.15;;;38.95;;
27533;SDS011;14973;51.460;7.008;2023-08-30T05:06:04;66.78;;;37.97;;
27533;SDS011;14973;51.460;7.008;2023-08-30T05:08:30;66.90;;;37.95;;
27533;SDS011;14973;51.460;7.008;2023-08-30T05:10:56;63.45;;;34.63;;
27533;SDS011;14973;51.460;7.008;2023-08-30T05:13:21;61.83;;;37.50;;
27533;SDS011;14973;51.460;7.008;2023-08-30T05:15:47;60.75;;;34.47;;
27533;SDS011;14973;51.460;7.008;2023-08-30T05:18:12;54.65;;;32.85;;
27533;SDS011;14973;51.460;7.008;2023-08-30T05:20:38;49.65;;;33.33;;
27533;SDS011;14973;51.460;7.008;2023-08-30T05:23:03;59.17;;;32.53;;
27533;SDS011;14973;51.460;7.008;2023-08-30T05:25:29;50.67;;;31.85;;
27533;SDS011;14973;51.460;7.008;2023-08-30T05:27:54;51.03;;;29.85;;
27533;SDS011;14973;51.460;7.008;2023-08-30T05:30:20;51.58;;;30.15;;
27533;SDS011;14973;51.460;7.008;2023-08-30T05:32:45;47.05;;;29.45;;
27533;SDS011;14973;51.460;7.008;2023-08-30T05:35:11;52.35;;;29.90;;
27533;SDS011;14973;51.460;7.008;2023-08-30T05:37:37;89.45;;;54.15;;
27533;SDS011;14973;51.460;7.008;2023-08-30T05:40:02;45.88;;;29.00;;
27533;SDS011;14973;51.460;7.008;2023-08-30T05:42:28;53.08;;;29.10;;
27533;SDS011;14973;51.460;7.008;2023-08-30T05:44:54;49.47;;;29.15;;
27533;SDS011;14973;51.460;7.008;2023-08-30T05:47:20;49.08;;;30.33;;
27533;SDS011;14973;51.460;7.008;2023-08-30T05:49:46;51.78;;;29.33;;
27533;SDS011;14973;51.460;7.008;2023-08-30T05:52:12;47.97;;;29.00;;
27533;SDS011;14973;51.460;7.008;2023-08-30T05:54:37;47.35;;;29.25;;
27533;SDS011;14973;51.460;7.008;2023-08-30T05:57:03;51.95;;;29.70;;
27533;SDS011;14973;51.460;7.008;2023-08-30T05:59:28;47.50;;;28.17;;
27533;SDS011;14973;51.460;7.008;2023-08-30T06:01:54;49.78;;;27.52;;
27533;SDS011;14973;51.460;7.008;2023-08-30T06:04:20;49.33;;;28.13;;
27533;SDS011;14973;51.460;7.008;2023-08-30T07:36:09;22.98;;;11.60;;
27533;SDS011;14973;51.460;7.008;2023-08-30T07:38:36;21.50;;;12.88;;
27533;SDS011;14973;51.460;7.008;2023-08-30T07:41:02;18.45;;;9.95;;
27533;SDS011;14973;51.460;7.008;2023-08-30T07:43:27;18.90;;;9.77;;
27533;SDS011;14973;51.460;7.008;2023-08-30T07:45:53;15.98;;;9.10;;
27533;SDS011;14973;51.460;7.008;2023-08-30T07:48:18;16.67;;;9.35;;
27533;SDS011;14973;51.460;7.008;2023-08-30T07:50:44;23.80;;;11.43;;
27533;SDS011;14973;51.460;7.008;2023-08-30T07:53:10;22.48;;;9.80;;
27533;SDS011;14973;51.460;7.008;2023-08-30T07:55:36;14.05;;;7.85;;
27533;SDS011;14973;51.460;7.008;2023-08-30T07:58:02;12.13;;;7.47;;
27533;SDS011;14973;51.460;7.008;2023-08-30T08:00:28;24.30;;;9.00;;
27533;SDS011;14973;51.460;7.008;2023-08-30T08:52:50;10.07;;;6.47;;
27533;SDS011;14973;51.460;7.008;2023-08-30T08:55:17;13.15;;;6.07;;
27533;SDS011;14973;51.460;7.008;2023-08-30T08:57:43;10.43;;;5.85;;
27533;SDS011;14973;51.460;7.008;2023-08-30T09:00:10;11.90;;;6.18;;
27533;SDS011;14973;51.460;7.008;2023-08-30T09:02:36;14.77;;;7.35;;
27533;SDS011;14973;51.460;7.008;2023-08-30T09:05:03;12.20;;;6.18;;
27533;SDS011;14973;51.460;7.008;2023-08-30T09:07:30;13.45;;;5.85;;
27533;SDS011;14973;51.460;7.008;2023-08-30T09:09:57;15.60;;;6.55;;
27533;SDS011;14973;51.460;7.008;2023-08-30T09:12:23;15.35;;;6.40;;
27533;SDS011;14973;51.460;7.008;2023-08-30T09:14:55;10.75;;;6.38;;
27533;SDS011;14973;51.460;7.008;2023-08-30T09:17:21;14.73;;;6.82;;
27533;SDS011;14973;51.460;7.008;2023-08-30T09:19:47;10.50;;;6.28;;
27533;SDS011;14973;51.460;7.008;2023-08-30T09:22:12;20.75;;;8.27;;
27533;SDS011;14973;51.460;7.008;2023-08-30T09:24:38;11.90;;;6.45;;
27533;SDS011;14973;51.460;7.008;2023-08-30T09:27:04;13.52;;;6.15;;
27533;SDS011;14973;51.460;7.008;2023-08-30T09:29:30;12.93;;;6.18;;
27533;SDS011;14973;51.460;7.008;2023-08-30T09:32:00;15.00;;;6.30;;
27533;SDS011;14973;51.460;7.008;2023-08-30T09:34:26;21.23;;;6.43;;
27533;SDS011;14973;51.460;7.008;2023-08-30T09:36:52;12.48;;;6.38;;
27533;SDS011;14973;51.460;7.008;2023-08-30T09:39:19;11.90;;;6.68;;
27533;SDS011;14973;51.460;7.008;2023-08-30T09:41:48;14.73;;;6.18;;
27533;SDS011;14973;51.460;7.008;2023-08-30T09:44:15;15.82;;;6.68;;
27533;SDS011;14973;51.460;7.008;2023-08-30T09:46:46;20.10;;;5.25;;
27533;SDS011;14973;51.460;7.008;2023-08-30T09:49:17;13.38;;;5.95;;
27533;SDS011;14973;51.460;7.008;2023-08-30T09:51:47;12.50;;;6.28;;
27533;SDS011;14973;51.460;7.008;2023-08-30T09:54:18;17.63;;;6.25;;
27533;SDS011;14973;51.460;7.008;2023-08-30T09:56:48;9.10;;;5.75;;
27533;SDS011;14973;51.460;7.008;2023-08-30T09:59:17;13.85;;;5.35;;
27533;SDS011;14973;51.460;7.008;2023-08-30T10:01:44;12.57;;;6.35;;
27533;SDS011;14973;51.460;7.008;2023-08-30T10:04:13;11.05;;;6.00;;
27533;SDS011;14973;51.460;7.008;2023-08-30T10:06:40;13.32;;;6.10;;
27533;SDS011;14973;51.460;7.008;2023-08-30T10:09:06;14.38;;;7.15;;
27533;SDS011;14973;51.460;7.008;2023-08-30T10:11:34;17.67;;;9.40;;
27533;SDS011;14973;51.460;7.008;2023-08-30T10:14:05;18.85;;;7.10;;
27533;SDS011;14973;51.460;7.008;2023-08-30T10:16:35;15.85;;;6.95;;
27533;SDS011;14973;51.460;7.008;2023-08-30T10:19:08;10.30;;;6.95;;
27533;SDS011;14973;51.460;7.008;2023-08-30T10:24:37;13.75;;;6.95;;
27533;SDS011;14973;51.460;7.008;2023-08-30T10:27:06;19.90;;;7.47;;
27533;SDS011;14973;51.460;7.008;2023-08-30T10:29:34;16.80;;;7.93;;
27533;SDS011;14973;51.460;7.008;2023-08-30T10:32:06;16.98;;;8.15;;
27533;SDS011;14973;51.460;7.008;2023-08-30T10:34:32;14.63;;;6.97;;
27533;SDS011;14973;51.460;7.008;2023-08-30T10:36:59;16.60;;;7.32;;
27533;SDS011;14973;51.460;7.008;2023-08-30T10:39:36;18.27;;;8.10;;
27533;SDS011;14973;51.460;7.008;2023-08-30T10:42:09;18.85;;;9.05;;
27533;SDS011;14973;51.460;7.008;2023-08-30T10:44:49;16.42;;;9.02;;
27533;SDS011;14973;51.460;7.008;2023-08-30T10:47:19;17.40;;;9.27;;
27533;SDS011;14973;51.460;7.008;2023-08-30T10:49:48;14.50;;;9.73;;
27533;SDS011;14973;51.460;7.008;2023-08-30T10:52:14;18.27;;;10.15;;
27533;SDS011;14973;51.460;7.008;2023-08-30T10:54:40;20.35;;;10.23;;
27533;SDS011;14973;51.460;7.008;2023-08-30T10:57:08;20.50;;;10.93;;
27533;SDS011;14973;51.460;7.008;2023-08-30T10:59:39;21.58;;;10.95;;
27533;SDS011;14973;51.460;7.008;2023-08-30T11:02:05;22.27;;;11.05;;
27533;SDS011;14973;51.460;7.008;2023-08-30T11:04:31;19.30;;;11.82;;
27533;SDS011;14973;51.460;7.008;2023-08-30T11:06:57;18.80;;;11.77;;
27533;SDS011;14973;51.460;7.008;2023-08-30T11:09:23;23.88;;;13.20;;
27533;SDS011;14973;51.460;7.008;2023-08-30T11:11:50;20.95;;;12.45;;
27533;SDS011;14973;51.460;7.008;2023-08-30T11:14:17;18.63;;;11.63;;
27533;SDS011;14973;51.460;7.008;2023-08-30T11:16:44;17.40;;;10.85;;
27533;SDS011;14973;51.460;7.008;2023-08-30T11:19:10;19.95;;;11.52;;
27533;SDS011;14973;51.460;7.008;2023-08-30T11:21:37;14.77;;;11.32;;
27533;SDS011;14973;51.460;7.008;2023-08-30T11:24:04;16.38;;;10.52;;
27533;SDS011;14973;51.460;7.008;2023-08-30T11:26:31;15.98;;;9.20;;
27533;SDS011;14973;51.460;7.008;2023-08-30T11:28:56;15.93;;;8.95;;
27533;SDS011;14973;51.460;7.008;2023-08-30T11:31:22;16.52;;;9.95;;
27533;SDS011;14973;51.460;7.008;2023-08-30T11:33:52;14.77;;;9.40;;
27533;SDS011;14973;51.460;7.008;2023-08-30T11:36:20;14.32;;;8.65;;
27533;SDS011;14973;51.460;7.008;2023-08-30T11:38:49;11.45;;;7.72;;
27533;SDS011;14973;51.460;7.008;2023-08-30T11:41:15;12.05;;;7.97;;
27533;SDS011;14973;51.460;7.008;2023-08-30T11:43:41;11.98;;;7.70;;
27533;SDS011;14973;51.460;7.008;2023-08-30T11:46:08;10.93;;;7.07;;
27533;SDS011;14973;51.460;7.008;2023-08-30T11:48:33;15.23;;;7.22;;
27533;SDS011;14973;51.460;7.008;2023-08-30T11:51:00;9.35;;;6.60;;
27533;SDS011;14973;51.460;7.008;2023-08-30T11:53:26;8.18;;;6.28;;
27533;SDS011;14973;51.460;7.008;2023-08-30T11:55:52;10.32;;;6.40;;
27533;SDS011;14973;51.460;7.008;2023-08-30T11:58:18;13.40;;;6.07;;
27533;SDS011;14973;51.460;7.008;2023-08-30T12:00:44;9.35;;;6.40;;
27533;SDS011;14973;51.460;7.008;2023-08-30T12:03:13;10.70;;;5.95;;
27533;SDS011;14973;51.460;7.008;2023-08-30T12:05:50;12.30;;;6.70;;
27533;SDS011;14973;51.460;7.008;2023-08-30T12:08:26;12.25;;;6.40;;
27533;SDS011;14973;51.460;7.008;2023-08-30T12:10:53;13.95;;;7.32;;
27533;SDS011;14973;51.460;7.008;2023-08-30T12:13:29;10.45;;;6.03;;
27533;SDS011;14973;51.460;7.008;2023-08-30T12:15:57;8.38;;;5.78;;
27533;SDS011;14973;51.460;7.008;2023-08-30T12:18:23;9.80;;;5.63;;
27533;SDS011;14973;51.460;7.008;2023-08-30T12:20:56;9.10;;;5.35;;
27533;SDS011;14973;51.460;7.008;2023-08-30T12:23:24;7.82;;;5.35;;
27533;SDS011;14973;51.460;7.008;2023-08-30T12:26:01;7.60;;;4.90;;
27533;SDS011;14973;51.460;7.008;2023-08-30T12:28:31;8.50;;;5.10;;
27533;SDS011;14973;51.460;7.008;2023-08-30T12:30:59;8.85;;;4.65;;
27533;SDS011;14973;51.460;7.008;2023-08-30T12:33:25;6.68;;;4.78;;
27533;SDS011;14973;51.460;7.008;2023-08-30T12:35:54;7.60;;;5.03;;
27533;SDS011;14973;51.460;7.008;2023-08-30T12:38:20;15.02;;;6.90;;
27533;SDS011;14973;51.460;7.008;2023-08-30T12:40:47;9.20;;;5.20;;
27533;SDS011;14973;51.460;7.008;2023-08-30T12:43:14;9.77;;;5.60;;
27533;SDS011;14973;51.460;7.008;2023-08-30T12:45:40;10.18;;;4.93;;
27533;SDS011;14973;51.460;7.008;2023-08-30T12:48:10;13.63;;;5.25;;
27533;SDS011;14973;51.460;7.008;2023-08-30T12:50:36;8.63;;;5.18;;
27533;SDS011;14973;51.460;7.008;2023-08-30T12:53:03;8.45;;;5.00;;
27533;SDS011;14973;51.460;7.008;2023-08-30T12:55:30;6.85;;;5.20;;
27533;SDS011;14973;51.460;7.008;2023-08-30T12:57:55;8.38;;;5.70;;
27533;SDS011;14973;51.460;7.008;2023-08-30T13:00:21;14.48;;;7.28;;
27533;SDS011;14973;51.460;7.008;2023-08-30T13:02:47;9.10;;;5.05;;
27533;SDS011;14973;51.460;7.008;2023-08-30T13:05:13;10.85;;;5.93;;
27533;SDS011;14973;51.460;7.008;2023-08-30T13:07:38;11.38;;;6.72;;
27533;SDS011;14973;51.460;7.008;2023-08-30T13:10:04;11.57;;;6.30;;
27533;SDS011;14973;51.460;7.008;2023-08-30T13:12:33;12.48;;;6.45;;
27533;SDS011;14973;51.460;7.008;2023-08-30T13:14:59;9.88;;;6.07;;
27533;SDS011;14973;51.460;7.008;2023-08-30T13:17:25;14.25;;;8.88;;
27533;SDS011;14973;51.460;7.008;2023-08-30T13:19:50;14.82;;;7.55;;
27533;SDS011;14973;51.460;7.008;2023-08-30T13:22:16;10.07;;;6.80;;
27533;SDS011;14973;51.460;7.008;2023-08-30T13:24:42;15.20;;;9.45;;
27533;SDS011;14973;51.460;7.008;2023-08-30T13:27:08;13.63;;;8.18;;
27533;SDS011;14973;51.460;7.008;2023-08-30T13:29:35;11.77;;;7.60;;
27533;SDS011;14973;51.460;7.008;2023-08-30T13:32:00;13.73;;;7.85;;
27533;SDS011;14973;51.460;7.008;2023-08-30T13:34:26;13.50;;;7.80;;
27533;SDS011;14973;51.460;7.008;2023-08-30T13:36:52;10.48;;;7.35;;
27533;SDS011;14973;51.460;7.008;2023-08-30T13:39:17;13.18;;;8.25;;
27533;SDS011;14973;51.460;7.008;2023-08-30T13:41:45;13.43;;;7.95;;
27533;SDS011;14973;51.460;7.008;2023-08-30T13:44:11;11.38;;;7.75;;
27533;SDS011;14973;51.460;7.008;2023-08-30T13:46:37;13.68;;;7.78;;
27533;SDS011;14973;51.460;7.008;2023-08-30T13:49:03;11.32;;;7.43;;
27533;SDS011;14973;51.460;7.008;2023-08-30T13:51:28;11.82;;;5.95;;
27533;SDS011;14973;51.460;7.008;2023-08-30T13:53:54;9.75;;;5.65;;
27533;SDS011;14973;51.460;7.008;2023-08-30T13:56:19;7.43;;;4.78;;
27533;SDS011;14973;51.460;7.008;2023-08-30T13:58:45;7.25;;;4.90;;
27533;SDS011;14973;51.460;7.008;2023-08-30T14:01:11;7.03;;;4.63;;
27533;SDS011;14973;51.460;7.008;2023-08-30T14:03:37;7.13;;;4.65;;
27533;SDS011;14973;51.460;7.008;2023-08-30T14:06:03;6.80;;;4.65;;
27533;SDS011;14973;51.460;7.008;2023-08-30T14:08:28;12.77;;;5.45;;
27533;SDS011;14973;51.460;7.008;2023-08-30T14:10:55;9.68;;;5.07;;
27533;SDS011;14973;51.460;7.008;2023-08-30T14:13:21;10.73;;;4.90;;
27533;SDS011;14973;51.460;7.008;2023-08-30T14:15:46;9.85;;;4.97;;
27533;SDS011;14973;51.460;7.008;2023-08-30T14:18:12;9.10;;;5.30;;
27533;SDS011;14973;51.460;7.008;2023-08-30T14:20:38;8.15;;;5.10;;
27533;SDS011;14973;51.460;7.008;2023-08-30T14:23:04;7.22;;;4.97;;
27533;SDS011;14973;51.460;7.008;2023-08-30T14:25:29;9.75;;;5.38;;
27533;SDS011;14973;51.460;7.008;2023-08-30T14:27:55;9.18;;;6.03;;
27533;SDS011;14973;51.460;7.008;2023-08-30T14:30:21;8.82;;;5.60;;
27533;SDS011;14973;51.460;7.008;2023-08-30T14:32:46;10.93;;;5.00;;
27533;SDS011;14973;51.460;7.008;2023-08-30T14:35:12;9.18;;;4.95;;
27533;SDS011;14973;51.460;7.008;2023-08-30T14:37:38;9.60;;;5.03;;
27533;SDS011;14973;51.460;7.008;2023-08-30T14:40:04;8.02;;;4.68;;
27533;SDS011;14973;51.460;7.008;2023-08-30T14:42:31;10.13;;;4.72;;
27533;SDS011;14973;51.460;7.008;2023-08-30T14:44:57;8.25;;;5.05;;
27533;SDS011;14973;51.460;7.008;2023-08-30T14:47:23;10.00;;;5.70;;
27533;SDS011;14973;51.460;7.008;2023-08-30T14:49:49;11.30;;;5.47;;
27533;SDS011;14973;51.460;7.008;2023-08-30T14:52:14;8.02;;;5.47;;
27533;SDS011;14973;51.460;7.008;2023-08-30T14:54:40;9.80;;;5.40;;
27533;SDS011;14973;51.460;7.008;2023-08-30T14:57:07;8.30;;;5.43;;
27533;SDS011;14973;51.460;7.008;2023-08-30T14:59:32;8.80;;;5.38;;
27533;SDS011;14973;51.460;7.008;2023-08-30T15:01:58;12.13;;;6.65;;
27533;SDS011;14973;51.460;7.008;2023-08-30T15:04:24;11.88;;;6.80;;
27533;SDS011;14973;51.460;7.008;2023-08-30T15:06:50;9.40;;;6.15;;
27533;SDS011;14973;51.460;7.008;2023-08-30T15:09:16;10.15;;;7.05;;
27533;SDS011;14973;51.460;7.008;2023-08-30T15:11:42;16.38;;;7.95;;
27533;SDS011;14973;51.460;7.008;2023-08-30T15:14:08;13.55;;;7.97;;
27533;SDS011;14973;51.460;7.008;2023-08-30T15:16:34;11.35;;;7.72;;
27533;SDS011;14973;51.460;7.008;2023-08-30T15:18:59;12.95;;;9.30;;
27533;SDS011;14973;51.460;7.008;2023-08-30T15:21:25;15.98;;;10.27;;
27533;SDS011;14973;51.460;7.008;2023-08-30T15:23:50;16.42;;;11.00;;
27533;SDS011;14973;51.460;7.008;2023-08-30T15:26:16;23.92;;;11.45;;
27533;SDS011;14973;51.460;7.008;2023-08-30T15:28:42;19.55;;;10.95;;
27533;SDS011;14973;51.460;7.008;2023-08-30T15:31:11;21.73;;;12.05;;
27533;SDS011;14973;51.460;7.008;2023-08-30T15:33:44;18.35;;;11.43;;
27533;SDS011;14973;51.460;7.008;2023-08-30T15:36:09;21.77;;;11.23;;
27533;SDS011;14973;51.460;7.008;2023-08-30T15:38:35;19.77;;;11.75;;
27533;SDS011;14973;51.460;7.008;2023-08-30T15:41:01;15.77;;;10.07;;
27533;SDS011;14973;51.460;7.008;2023-08-30T15:43:33;18.98;;;9.63;;
27533;SDS011;14973;51.460;7.008;2023-08-30T15:46:04;20.27;;;10.90;;
27533;SDS011;14973;51.460;7.008;2023-08-30T15:48:34;16.67;;;8.88;;
27533;SDS011;14973;51.460;7.008;2023-08-30T15:51:00;16.65;;;8.55;;
27533;SDS011;14973;51.460;7.008;2023-08-30T15:53:26;11.10;;;7.03;;
27533;SDS011;14973;51.460;7.008;2023-08-30T15:55:52;14.70;;;7.13;;
27533;SDS011;14973;51.460;7.008;2023-08-30T15:58:17;12.18;;;8.10;;
27533;SDS011;14973;51.460;7.008;2023-08-30T16:00:43;12.32;;;8.05;;
27533;SDS011;14973;51.460;7.008;2023-08-30T16:03:09;14.88;;;9.18;;
27533;SDS011;14973;51.460;7.008;2023-08-30T16:05:36;12.93;;;7.60;;
27533;SDS011;14973;51.460;7.008;2023-08-30T16:08:02;15.52;;;8.32;;
27533;SDS011;14973;51.460;7.008;2023-08-30T16:10:28;15.60;;;8.18;;
27533;SDS011;14973;51.460;7.008;2023-08-30T16:12:53;16.58;;;10.73;;
27533;SDS011;14973;51.460;7.008;2023-08-30T16:15:19;12.20;;;8.35;;
27533;SDS011;14973;51.460;7.008;2023-08-30T16:17:46;14.68;;;8.95;;
27533;SDS011;14973;51.460;7.008;2023-08-30T16:20:11;15.95;;;8.57;;
27533;SDS011;14973;51.460;7.008;2023-08-30T16:22:37;12.27;;;8.93;;
27533;SDS011;14973;51.460;7.008;2023-08-30T16:25:03;17.92;;;9.13;;
27533;SDS011;14973;51.460;7.008;2023-08-30T16:27:30;14.77;;;9.43;;
27533;SDS011;14973;51.460;7.008;2023-08-30T16:29:55;12.52;;;8.88;;
27533;SDS011;14973;51.460;7.008;2023-08-30T16:32:21;11.82;;;8.45;;
27533;SDS011;14973;51.460;7.008;2023-08-30T16:34:47;17.45;;;8.25;;
27533;SDS011;14973;51.460;7.008;2023-08-30T16:37:14;15.15;;;8.75;;
27533;SDS011;14973;51.460;7.008;2023-08-30T16:39:40;11.55;;;8.23;;
27533;SDS011;14973;51.460;7.008;2023-08-30T16:42:06;16.33;;;9.18;;
27533;SDS011;14973;51.460;7.008;2023-08-30T16:44:32;18.60;;;9.07;;
27533;SDS011;14973;51.460;7.008;2023-08-30T16:46:57;15.65;;;8.55;;
27533;SDS011;14973;51.460;7.008;2023-08-30T16:49:23;15.90;;;8.30;;
27533;SDS011;14973;51.460;7.008;2023-08-30T16:51:48;12.95;;;8.65;;
27533;SDS011;14973;51.460;7.008;2023-08-30T16:54:14;15.02;;;8.95;;
27533;SDS011;14973;51.460;7.008;2023-08-30T16:56:39;17.98;;;9.27;;
27533;SDS011;14973;51.460;7.008;2023-08-30T16:59:05;12.63;;;9.10;;
27533;SDS011;14973;51.460;7.008;2023-08-30T17:01:30;13.18;;;9.43;;